Time;durP1;ratioP1;P1;durP2;ratioP2;P2;SDS_P1;SDS_P2;PMS_P1;PMS_P2;Temp;Humidity;BMP_temperature;BMP_pressure;BME280_temperature;BME280_humidity;BME280_pressure;Samples;Min_cycle;Max_cycle;Signal;HPM_P1;HPM_P2
2023/07/07 00:01:50;;;;;;;10.20;6.23;;;14.30;94.40;;;;;;5038328;28;20274;-59
2023/07/07 00:04:17;;;;;;;9.93;5.77;;;14.30;94.40;;;;;;5031205;28;20214;-59
2023/07/07 00:06:43;;;;;;;9.07;6.40;;;14.20;94.40;;;;;;5032421;28;20262;-59
2023/07/07 00:09:09;;;;;;;9.50;6.43;;;14.20;94.60;;;;;;5040845;28;20429;-59
2023/07/07 00:11:35;;;;;;;8.30;5.57;;;14.20;94.80;;;;;;5033208;28;20461;-58
2023/07/07 00:14:01;;;;;;;9.23;6.00;;;14.10;95.10;;;;;;5043916;28;20179;-60
2023/07/07 00:16:30;;;;;;;12.53;6.30;;;14.10;95.50;;;;;;5036866;28;20545;-60
2023/07/07 00:18:56;;;;;;;12.67;6.77;;;14.10;95.40;;;;;;5043971;28;21137;-60
2023/07/07 00:21:24;;;;;;;10.97;5.40;;;14.10;95.60;;;;;;5043035;28;20469;-59
2023/07/07 00:23:54;;;;;;;9.33;5.97;;;14.10;96.10;;;;;;5043431;28;20449;-61
2023/07/07 00:26:21;;;;;;;9.00;5.63;;;14.00;95.70;;;;;;5049383;28;20452;-60
2023/07/07 00:28:47;;;;;;;9.57;6.00;;;14.00;96.40;;;;;;5047185;28;20429;-58
2023/07/07 00:31:13;;;;;;;11.63;6.20;;;13.90;96.90;;;;;;5045291;28;20449;-59
2023/07/07 00:33:38;;;;;;;8.20;5.80;;;13.90;97.00;;;;;;5048867;28;20938;-59
2023/07/07 00:36:04;;;;;;;8.77;5.87;;;13.90;97.30;;;;;;5048182;28;20671;-59
2023/07/07 00:38:30;;;;;;;10.20;6.37;;;13.80;97.70;;;;;;5046077;28;20238;-59
2023/07/07 00:41:00;;;;;;;11.40;6.80;;;13.80;98.10;;;;;;5044695;28;20227;-60
2023/07/07 00:43:26;;;;;;;10.47;6.70;;;13.70;98.20;;;;;;5048875;28;20987;-60
2023/07/07 00:45:52;;;;;;;22.60;6.97;;;13.70;98.30;;;;;;5045725;28;20463;-60
2023/07/07 00:48:32;;;;;;;9.80;6.10;;;13.60;98.70;;;;;;5036309;28;20918;-59
2023/07/07 00:51:00;;;;;;;9.70;6.17;;;13.60;98.80;;;;;;5038928;28;20202;-59
2023/07/07 00:53:28;;;;;;;10.93;6.37;;;13.60;98.60;;;;;;5045039;28;20537;-59
2023/07/07 00:56:01;;;;;;;9.03;5.73;;;13.50;98.90;;;;;;5041802;28;20981;-58
2023/07/07 00:58:28;;;;;;;10.43;6.53;;;13.50;98.80;;;;;;5034830;28;20917;-57
2023/07/07 01:01:05;;;;;;;9.17;6.13;;;13.50;98.80;;;;;;5037708;28;20852;-60
2023/07/07 01:03:45;;;;;;;10.70;5.90;;;13.40;98.90;;;;;;5044656;28;20451;-60
2023/07/07 01:06:14;;;;;;;7.77;5.57;;;13.40;99.20;;;;;;5047983;28;20567;-57
2023/07/07 01:08:42;;;;;;;10.03;6.33;;;13.40;99.30;;;;;;5046307;28;20938;-61
2023/07/07 01:11:08;;;;;;;10.10;6.63;;;13.40;99.70;;;;;;5038806;28;20908;-60
2023/07/07 01:13:34;;;;;;;11.17;6.30;;;13.30;99.80;;;;;;5046412;28;20879;-60
2023/07/07 01:16:15;;;;;;;10.57;6.33;;;13.30;99.90;;;;;;5032385;28;20462;-59
2023/07/07 01:19:05;;;;;;;8.30;5.83;;;13.30;99.90;;;;;;5041957;28;20872;-60
2023/07/07 01:21:43;;;;;;;11.63;6.47;;;13.20;99.90;;;;;;5045085;28;20989;-60
2023/07/07 01:24:36;;;;;;;10.70;6.20;;;13.20;99.90;;;;;;5048217;28;20484;-60
2023/07/07 01:27:36;;;;;;;10.30;7.03;;;13.20;99.90;;;;;;5043665;28;20426;-59
2023/07/07 01:30:15;;;;;;;9.13;6.10;;;13.10;99.90;;;;;;5038297;28;20438;-59
2023/07/07 01:32:42;;;;;;;10.67;5.90;;;13.00;99.90;;;;;;5040846;28;20454;-60
2023/07/07 01:35:14;;;;;;;10.70;6.47;;;13.00;99.90;;;;;;5037768;28;20454;-60
2023/07/07 01:37:39;;;;;;;9.60;6.23;;;12.90;99.90;;;;;;5039586;28;21030;-59
2023/07/07 01:40:06;;;;;;;9.00;5.90;;;12.90;99.90;;;;;;5042790;28;20510;-58
2023/07/07 01:42:39;;;;;;;9.30;6.47;;;12.90;99.90;;;;;;5047920;28;20194;-59
2023/07/07 01:45:17;;;;;;;15.33;6.90;;;12.90;99.90;;;;;;5035241;28;21232;-60
2023/07/07 01:47:54;;;;;;;13.20;6.67;;;12.80;99.90;;;;;;5044977;28;20440;-61
2023/07/07 01:50:24;;;;;;;8.83;5.77;;;12.80;99.90;;;;;;5037813;28;20430;-60
2023/07/07 01:52:54;;;;;;;9.77;5.87;;;12.80;99.90;;;;;;5042245;28;20449;-60
2023/07/07 01:55:39;;;;;;;9.20;6.27;;;12.70;99.90;;;;;;5042467;28;20455;-60
2023/07/07 01:58:08;;;;;;;10.40;6.40;;;12.70;99.90;;;;;;5034046;28;20434;-58
2023/07/07 02:00:34;;;;;;;7.83;5.40;;;12.70;99.90;;;;;;5038713;28;20832;-60
2023/07/07 02:03:00;;;;;;;7.80;5.60;;;12.70;99.90;;;;;;5030351;28;20578;-60
2023/07/07 02:05:27;;;;;;;14.97;7.83;;;12.70;99.90;;;;;;5048956;28;20458;-60
2023/07/07 02:07:53;;;;;;;10.70;5.80;;;12.60;99.90;;;;;;5045496;28;20426;-61
2023/07/07 02:10:18;;;;;;;8.73;5.97;;;12.60;99.90;;;;;;5041705;28;20423;-61
2023/07/07 02:12:45;;;;;;;10.97;6.50;;;12.60;99.90;;;;;;5045628;28;20200;-60
2023/07/07 02:15:11;;;;;;;9.93;5.83;;;12.60;99.90;;;;;;5044764;28;20323;-61
2023/07/07 02:17:36;;;;;;;11.40;5.87;;;12.60;99.90;;;;;;5043835;28;20512;-60
2023/07/07 02:20:03;;;;;;;11.57;5.83;;;12.60;99.90;;;;;;5042101;28;20171;-59
2023/07/07 02:22:29;;;;;;;10.73;6.60;;;12.50;99.90;;;;;;5041735;28;20207;-57
2023/07/07 02:24:55;;;;;;;9.17;6.07;;;12.50;99.90;;;;;;5029219;28;20446;-60
2023/07/07 02:27:20;;;;;;;10.03;5.90;;;12.50;99.90;;;;;;5037821;28;20183;-59
2023/07/07 02:29:46;;;;;;;11.97;6.10;;;12.50;99.90;;;;;;5044826;28;20634;-60
2023/07/07 02:32:11;;;;;;;9.00;6.17;;;12.40;99.90;;;;;;5035791;28;20195;-60
2023/07/07 02:34:39;;;;;;;9.03;5.73;;;12.40;99.90;;;;;;5036628;28;20586;-59
2023/07/07 02:37:12;;;;;;;9.33;5.70;;;12.40;99.90;;;;;;5033887;28;20672;-59
2023/07/07 02:39:38;;;;;;;11.73;6.40;;;12.30;99.90;;;;;;5034245;28;20418;-60
2023/07/07 02:42:04;;;;;;;11.20;6.40;;;12.30;99.90;;;;;;5033613;28;20896;-60
2023/07/07 02:44:29;;;;;;;8.30;5.67;;;12.30;99.90;;;;;;5039257;28;20167;-59
2023/07/07 02:46:55;;;;;;;12.90;7.00;;;12.20;99.90;;;;;;5036512;28;20183;-60
2023/07/07 02:49:20;;;;;;;9.80;6.20;;;12.20;99.90;;;;;;5033386;28;20175;-59
2023/07/07 02:51:46;;;;;;;10.20;6.73;;;12.20;99.90;;;;;;5038562;28;20578;-60
2023/07/07 02:54:11;;;;;;;8.50;6.00;;;12.20;99.90;;;;;;5038885;28;20175;-58
2023/07/07 02:56:37;;;;;;;8.90;6.40;;;12.10;99.90;;;;;;5037085;28;20196;-60
2023/07/07 02:59:02;;;;;;;10.47;6.40;;;12.10;99.90;;;;;;5040493;28;20697;-62
2023/07/07 03:01:28;;;;;;;10.20;5.90;;;12.10;99.90;;;;;;5036322;28;20195;-58
2023/07/07 03:03:56;;;;;;;13.30;6.67;;;12.10;99.90;;;;;;5032703;28;20196;-60
2023/07/07 03:06:22;;;;;;;10.40;6.40;;;12.10;99.90;;;;;;5044470;28;20583;-60
2023/07/07 03:08:49;;;;;;;11.40;7.40;;;12.10;99.90;;;;;;5039229;28;20423;-60
2023/07/07 03:11:17;;;;;;;8.97;6.37;;;12.00;99.90;;;;;;5040996;28;20450;-60
2023/07/07 03:13:45;;;;;;;8.23;5.80;;;12.00;99.90;;;;;;5045346;28;20498;-59
2023/07/07 03:16:14;;;;;;;11.23;6.60;;;12.00;99.90;;;;;;5043576;28;20449;-59
2023/07/07 03:18:40;;;;;;;12.73;6.30;;;12.00;99.90;;;;;;5032635;28;20445;-60
2023/07/07 03:21:06;;;;;;;10.47;6.77;;;11.90;99.90;;;;;;5046970;28;20493;-58
2023/07/07 03:23:32;;;;;;;8.50;5.73;;;11.90;99.90;;;;;;5038540;28;20430;-59
2023/07/07 03:26:15;;;;;;;10.50;6.30;;;11.90;99.90;;;;;;5039097;28;20430;-59
2023/07/07 03:28:41;;;;;;;9.50;6.23;;;11.90;99.90;;;;;;5043945;28;20181;-58
2023/07/07 03:31:33;;;;;;;7.50;5.40;;;11.90;99.90;;;;;;5036584;28;20485;-61
2023/07/07 03:34:01;;;;;;;10.70;6.50;;;11.90;99.90;;;;;;5030756;28;20195;-59
2023/07/07 03:36:31;;;;;;;8.67;5.70;;;11.90;99.90;;;;;;5033049;28;20912;-58
2023/07/07 03:38:57;;;;;;;11.37;5.90;;;11.80;99.90;;;;;;5033229;28;20431;-58
2023/07/07 03:41:26;;;;;;;7.90;6.00;;;11.80;99.90;;;;;;5031719;28;20811;-60
2023/07/07 03:43:53;;;;;;;11.53;6.90;;;11.80;99.90;;;;;;5038764;28;20432;-56
2023/07/07 03:46:20;;;;;;;9.83;6.33;;;11.80;99.90;;;;;;5038228;28;20477;-63
2023/07/07 03:48:47;;;;;;;8.50;6.20;;;11.70;99.90;;;;;;5041683;28;20771;-60
2023/07/07 03:51:13;;;;;;;10.97;6.97;;;11.70;99.90;;;;;;5037330;28;20529;-61
2023/07/07 03:53:41;;;;;;;11.50;6.57;;;11.70;99.90;;;;;;5029236;28;20915;-60
2023/07/07 03:56:08;;;;;;;8.80;6.00;;;11.70;99.90;;;;;;5029242;28;20458;-62
2023/07/07 03:58:33;;;;;;;10.70;6.70;;;11.70;99.90;;;;;;5020055;28;20434;-60
2023/07/07 04:01:01;;;;;;;12.60;7.57;;;11.60;99.90;;;;;;5025646;28;20511;-60
2023/07/07 04:03:26;;;;;;;10.70;7.23;;;11.60;99.90;;;;;;5026573;28;20167;-60
2023/07/07 04:05:54;;;;;;;8.13;5.97;;;11.60;99.90;;;;;;5017470;28;20422;-59
2023/07/07 04:08:24;;;;;;;10.47;7.07;;;11.60;99.90;;;;;;5038873;28;20312;-57
2023/07/07 04:11:05;;;;;;;11.97;6.67;;;11.60;99.90;;;;;;5035308;28;20446;-59
2023/07/07 04:13:33;;;;;;;13.23;6.47;;;11.60;99.90;;;;;;5039906;28;20438;-59
2023/07/07 04:16:05;;;;;;;14.63;7.23;;;11.60;99.90;;;;;;5035587;28;20462;-58
2023/07/07 04:18:34;;;;;;;10.17;6.77;;;11.70;99.90;;;;;;5035207;28;20425;-60
2023/07/07 04:21:06;;;;;;;14.83;6.67;;;11.70;99.90;;;;;;5035227;28;20453;-60
2023/07/07 04:23:32;;;;;;;11.73;6.87;;;11.70;99.90;;;;;;5033992;28;20426;-56
2023/07/07 04:25:58;;;;;;;11.47;6.40;;;11.80;99.90;;;;;;5026707;28;20430;-58
2023/07/07 04:28:24;;;;;;;10.17;6.20;;;11.80;99.90;;;;;;5040152;28;20438;-59
2023/07/07 04:30:55;;;;;;;10.37;6.87;;;11.90;99.90;;;;;;5023259;28;20219;-61
2023/07/07 04:33:22;;;;;;;8.63;5.97;;;11.80;99.90;;;;;;5034697;28;20552;-61
2023/07/07 04:35:56;;;;;;;12.40;7.23;;;11.90;99.90;;;;;;5031778;28;20461;-59
2023/07/07 04:38:30;;;;;;;11.10;7.37;;;11.90;99.90;;;;;;5031417;28;20507;-58
2023/07/07 04:41:04;;;;;;;16.13;7.00;;;11.90;99.90;;;;;;5038700;28;20522;-60
2023/07/07 04:43:30;;;;;;;10.50;6.60;;;12.00;99.90;;;;;;5032444;28;20421;-61
2023/07/07 04:45:56;;;;;;;10.07;6.03;;;12.00;99.90;;;;;;5042632;28;20919;-60
2023/07/07 04:48:21;;;;;;;13.70;6.53;;;12.10;99.90;;;;;;5048137;28;20409;-59
2023/07/07 04:50:47;;;;;;;9.67;6.80;;;12.10;99.90;;;;;;5041334;28;20211;-60
2023/07/07 04:53:12;;;;;;;10.30;6.60;;;12.10;99.90;;;;;;5039059;28;20176;-60
2023/07/07 04:55:43;;;;;;;9.90;6.40;;;12.20;99.90;;;;;;5041005;28;20334;-60
2023/07/07 04:58:09;;;;;;;14.27;8.07;;;12.20;99.90;;;;;;5031681;28;20168;-61
2023/07/07 05:00:34;;;;;;;8.73;6.50;;;12.30;99.90;;;;;;5036457;28;20449;-60
2023/07/07 05:03:00;;;;;;;17.33;7.53;;;12.30;99.90;;;;;;5032194;28;20194;-57
2023/07/07 05:05:25;;;;;;;10.50;6.40;;;12.40;99.90;;;;;;5038658;28;20171;-62
2023/07/07 05:07:51;;;;;;;12.83;6.20;;;12.50;99.90;;;;;;5045154;28;20179;-60
2023/07/07 05:10:16;;;;;;;12.20;6.73;;;12.50;99.90;;;;;;5037960;28;20178;-60
2023/07/07 05:12:42;;;;;;;8.97;6.27;;;12.60;99.90;;;;;;5039299;28;20671;-62
2023/07/07 05:15:08;;;;;;;10.30;6.67;;;12.70;99.90;;;;;;5029862;28;20204;-61
2023/07/07 05:17:33;;;;;;;13.23;6.33;;;12.80;99.90;;;;;;5042969;28;20175;-61
2023/07/07 05:19:59;;;;;;;9.73;6.40;;;12.90;99.90;;;;;;5050547;28;20190;-62
2023/07/07 05:22:25;;;;;;;11.17;6.43;;;12.90;99.90;;;;;;5049519;28;20294;-62
2023/07/07 05:24:50;;;;;;;10.20;6.20;;;13.00;99.90;;;;;;5042831;28;20636;-62
2023/07/07 05:27:16;;;;;;;12.33;6.60;;;13.00;99.90;;;;;;5040889;28;20175;-62
2023/07/07 05:29:41;;;;;;;9.27;6.57;;;13.10;99.90;;;;;;5042210;28;20640;-60
2023/07/07 05:32:07;;;;;;;9.87;6.20;;;13.20;99.90;;;;;;5044074;28;20195;-60
2023/07/07 05:34:33;;;;;;;12.30;6.30;;;13.20;99.90;;;;;;5041141;28;20175;-59
2023/07/07 05:36:58;;;;;;;12.97;6.70;;;13.30;99.90;;;;;;5047671;28;20465;-61
2023/07/07 05:39:24;;;;;;;8.63;6.27;;;13.40;99.90;;;;;;5043744;28;20281;-59
2023/07/07 05:41:49;;;;;;;13.23;6.23;;;13.40;99.90;;;;;;5041653;28;20190;-61
2023/07/07 05:44:15;;;;;;;8.87;5.93;;;13.50;99.90;;;;;;5039051;28;20179;-60
2023/07/07 05:46:41;;;;;;;9.93;6.70;;;13.50;99.90;;;;;;5043522;28;20686;-62
2023/07/07 05:49:06;;;;;;;10.50;6.70;;;13.60;99.80;;;;;;5046929;28;20642;-62
2023/07/07 05:51:32;;;;;;;10.50;7.30;;;13.60;99.90;;;;;;5043653;28;20741;-59
2023/07/07 05:53:57;;;;;;;13.00;6.73;;;13.70;99.90;;;;;;5043965;28;20183;-62
2023/07/07 05:56:24;;;;;;;9.63;6.00;;;13.80;99.90;;;;;;5041275;28;20673;-61
2023/07/07 05:58:52;;;;;;;11.17;6.63;;;13.90;99.90;;;;;;5043888;28;20171;-61
2023/07/07 06:01:17;;;;;;;8.67;6.10;;;14.00;99.90;;;;;;5035179;28;20453;-61
2023/07/07 06:03:44;;;;;;;8.90;6.17;;;14.10;99.90;;;;;;5047480;28;20953;-60
2023/07/07 06:06:10;;;;;;;9.10;5.97;;;14.20;99.00;;;;;;5038379;28;20191;-62
2023/07/07 06:08:35;;;;;;;10.37;7.10;;;14.30;98.60;;;;;;5042994;28;20449;-62
2023/07/07 06:11:01;;;;;;;9.40;6.67;;;14.40;98.60;;;;;;5036731;28;20199;-63
2023/07/07 06:13:28;;;;;;;9.17;6.40;;;14.50;98.10;;;;;;5038392;28;20183;-61
2023/07/07 06:15:54;;;;;;;12.50;6.53;;;14.60;97.50;;;;;;5039621;28;21130;-64
2023/07/07 06:18:21;;;;;;;10.80;6.40;;;14.70;96.30;;;;;;5043859;28;20438;-61
2023/07/07 06:20:48;;;;;;;17.40;7.00;;;14.70;96.10;;;;;;5042815;28;20743;-61
2023/07/07 06:23:14;;;;;;;12.00;6.40;;;14.80;96.40;;;;;;5038542;28;20968;-62
2023/07/07 06:25:40;;;;;;;8.67;6.00;;;15.00;96.70;;;;;;5039584;28;20516;-61
2023/07/07 06:28:05;;;;;;;14.50;7.33;;;15.10;95.90;;;;;;5038839;28;20429;-62
2023/07/07 06:30:31;;;;;;;10.33;6.40;;;15.10;95.40;;;;;;5046653;28;20209;-61
2023/07/07 06:32:58;;;;;;;11.13;6.50;;;15.30;95.40;;;;;;5047840;28;20199;-62
2023/07/07 06:35:25;;;;;;;13.53;6.30;;;15.40;94.20;;;;;;5032588;28;20200;-61
2023/07/07 06:37:51;;;;;;;9.30;6.43;;;15.50;93.50;;;;;;5041545;28;20442;-60
2023/07/07 06:40:16;;;;;;;11.87;6.67;;;15.60;92.70;;;;;;5034521;28;20434;-59
2023/07/07 06:42:42;;;;;;;9.53;5.83;;;15.70;92.00;;;;;;5029166;28;20192;-58
2023/07/07 06:45:08;;;;;;;10.33;7.00;;;15.80;92.10;;;;;;5038710;28;20186;-63
2023/07/07 06:47:33;;;;;;;11.83;6.77;;;15.90;90.90;;;;;;5043338;28;20180;-60
2023/07/07 06:49:59;;;;;;;13.67;6.60;;;16.10;89.20;;;;;;5041381;28;20494;-61
2023/07/07 06:52:25;;;;;;;15.17;8.00;;;16.20;87.70;;;;;;5048242;28;20233;-61
2023/07/07 06:54:52;;;;;;;12.60;7.50;;;16.40;86.30;;;;;;5048868;28;20207;-61
2023/07/07 06:57:18;;;;;;;9.07;6.00;;;16.50;85.30;;;;;;5040236;28;20321;-62
2023/07/07 06:59:43;;;;;;;10.40;6.00;;;16.70;84.80;;;;;;5044244;28;20508;-61
2023/07/07 07:02:13;;;;;;;8.00;5.37;;;16.80;85.20;;;;;;5042941;28;20274;-61
2023/07/07 07:04:39;;;;;;;7.80;5.67;;;16.90;85.30;;;;;;5045904;28;20175;-61
2023/07/07 07:07:05;;;;;;;8.80;5.77;;;17.10;84.50;;;;;;5044814;28;20428;-60
2023/07/07 07:09:31;;;;;;;8.40;5.57;;;17.30;85.30;;;;;;5043356;28;21040;-61
2023/07/07 07:11:57;;;;;;;11.40;5.70;;;17.40;81.50;;;;;;5044970;28;20484;-60
2023/07/07 07:14:22;;;;;;;12.23;5.90;;;17.60;79.70;;;;;;5031356;28;20457;-60
2023/07/07 07:16:48;;;;;;;9.90;6.80;;;17.80;78.70;;;;;;5038092;28;20230;-60
2023/07/07 07:19:13;;;;;;;13.40;7.77;;;17.90;78.30;;;;;;5043989;28;20179;-61
2023/07/07 07:21:39;;;;;;;11.00;6.00;;;18.10;77.90;;;;;;5038162;28;20217;-62
2023/07/07 07:24:05;;;;;;;11.80;5.60;;;18.20;76.30;;;;;;5040228;28;20666;-61
2023/07/07 07:26:30;;;;;;;9.10;5.00;;;18.30;73.40;;;;;;5041641;28;20183;-61
2023/07/07 07:28:56;;;;;;;10.23;6.17;;;18.40;72.70;;;;;;5034758;28;20203;-62
2023/07/07 07:31:22;;;;;;;8.33;4.83;;;18.50;73.30;;;;;;5038680;28;20203;-61
2023/07/07 07:33:51;;;;;;;8.60;5.10;;;18.70;74.00;;;;;;5039592;28;20432;-61
2023/07/07 07:36:17;;;;;;;8.90;5.77;;;18.80;73.80;;;;;;5041823;28;20821;-60
2023/07/07 07:38:42;;;;;;;7.47;4.53;;;18.90;73.20;;;;;;5040178;28;20442;-61
2023/07/07 07:41:08;;;;;;;8.90;5.60;;;19.10;72.90;;;;;;5045273;28;20260;-61
2023/07/07 07:43:33;;;;;;;8.43;5.20;;;19.20;72.50;;;;;;5038761;28;20183;-61
2023/07/07 07:45:59;;;;;;;8.90;5.23;;;19.30;71.50;;;;;;5038566;28;20183;-62
2023/07/07 07:48:25;;;;;;;10.80;5.13;;;19.40;70.20;;;;;;5041478;28;20945;-62
2023/07/07 07:50:50;;;;;;;9.70;5.70;;;19.50;70.80;;;;;;5034729;28;20171;-62
2023/07/07 07:53:16;;;;;;;11.80;5.80;;;19.60;71.10;;;;;;5040258;28;20211;-61
2023/07/07 07:55:42;;;;;;;8.47;5.07;;;19.70;71.20;;;;;;5042009;28;20277;-59
2023/07/07 07:58:07;;;;;;;9.13;5.07;;;19.80;71.20;;;;;;5037894;28;20237;-60
2023/07/07 08:00:33;;;;;;;7.50;5.50;;;19.90;70.40;;;;;;5040197;28;20176;-62
2023/07/07 08:02:58;;;;;;;7.77;5.23;;;20.10;69.90;;;;;;5042817;28;20171;-63
2023/07/07 08:05:24;;;;;;;11.33;5.50;;;20.20;68.70;;;;;;5045592;28;20601;-61
2023/07/07 08:07:50;;;;;;;7.70;4.30;;;20.30;66.90;;;;;;5035075;28;20194;-60
2023/07/07 08:10:15;;;;;;;8.40;5.60;;;20.40;65.20;;;;;;5036787;28;20178;-62
2023/07/07 08:12:41;;;;;;;9.27;4.77;;;20.60;65.60;;;;;;5042200;28;20195;-61
2023/07/07 08:15:10;;;;;;;8.10;4.53;;;20.60;64.30;;;;;;5035394;28;20199;-62
2023/07/07 08:17:35;;;;;;;9.37;5.40;;;20.80;63.70;;;;;;5040040;28;21145;-60
2023/07/07 08:20:01;;;;;;;8.03;4.90;;;20.90;63.70;;;;;;5038079;28;20418;-61
2023/07/07 08:22:27;;;;;;;11.30;4.73;;;21.00;63.10;;;;;;5043733;28;20210;-62
2023/07/07 08:24:55;;;;;;;10.27;4.83;;;21.20;62.80;;;;;;5035837;28;20206;-62
2023/07/07 08:27:22;;;;;;;8.07;5.00;;;21.30;61.00;;;;;;5035501;28;20218;-62
2023/07/07 08:29:48;;;;;;;7.57;5.23;;;21.40;60.90;;;;;;5036616;28;20830;-61
2023/07/07 08:32:21;;;;;;;7.30;4.10;;;21.50;60.80;;;;;;5042715;28;21107;-61
2023/07/07 08:34:47;;;;;;;7.27;4.33;;;21.60;57.10;;;;;;5036996;28;20422;-61
2023/07/07 08:37:15;;;;;;;6.47;4.60;;;21.80;54.00;;;;;;5038294;28;20451;-60
2023/07/07 08:39:41;;;;;;;6.27;4.17;;;22.00;53.70;;;;;;5035226;28;20426;-60
2023/07/07 08:42:38;;;;;;;7.80;4.47;;;22.20;54.10;;;;;;5034627;28;20682;-60
2023/07/07 08:45:15;;;;;;;7.17;4.70;;;22.30;54.00;;;;;;5044081;28;20481;-62
2023/07/07 08:48:04;;;;;;;5.97;4.50;;;22.50;53.40;;;;;;5044209;28;20434;-59
2023/07/07 08:50:49;;;;;;;7.67;4.40;;;22.60;52.80;;;;;;5043919;28;20516;-61
2023/07/07 08:53:31;;;;;;;8.83;4.97;;;22.70;52.80;;;;;;5039747;28;20430;-60
2023/07/07 08:56:11;;;;;;;9.83;4.80;;;22.70;52.30;;;;;;5044357;28;20811;-61
2023/07/07 08:59:02;;;;;;;11.40;5.00;;;22.80;51.40;;;;;;5040412;28;20717;-61
2023/07/07 09:01:33;;;;;;;11.37;4.90;;;22.90;50.10;;;;;;5039118;28;20442;-59
2023/07/07 09:04:20;;;;;;;9.87;4.93;;;23.10;49.80;;;;;;5030536;28;20869;-61
2023/07/07 09:07:23;;;;;;;7.43;4.53;;;23.20;50.00;;;;;;5043238;28;20433;-60
2023/07/07 09:10:13;;;;;;;16.70;5.63;;;23.40;48.70;;;;;;5040972;28;20432;-62
2023/07/07 09:13:05;;;;;;;18.23;5.30;;;23.60;46.30;;;;;;5038308;28;20457;-60
2023/07/07 09:15:36;;;;;;;11.67;5.50;;;23.70;46.90;;;;;;5037768;28;20438;-60
2023/07/07 09:18:33;;;;;;;9.03;4.97;;;23.80;46.10;;;;;;5042059;28;20398;-59
2023/07/07 09:21:03;;;;;;;9.57;5.30;;;23.80;46.50;;;;;;5037177;28;20451;-61
2023/07/07 09:23:33;;;;;;;13.43;6.30;;;23.90;48.20;;;;;;5043675;28;21183;-61
2023/07/07 09:26:04;;;;;;;11.83;5.80;;;24.00;47.50;;;;;;5032446;28;20465;-60
2023/07/07 09:28:34;;;;;;;11.70;6.03;;;24.00;46.60;;;;;;5028424;28;20458;-61
2023/07/07 09:31:09;;;;;;;13.13;5.30;;;24.10;45.60;;;;;;5038441;28;20445;-61
2023/07/07 09:33:35;;;;;;;10.90;5.53;;;24.30;45.10;;;;;;5041806;28;20959;-61
2023/07/07 09:36:27;;;;;;;7.53;5.27;;;24.40;45.60;;;;;;5042137;28;20548;-62
2023/07/07 09:39:14;;;;;;;9.00;5.00;;;24.50;46.30;;;;;;5036396;28;20191;-61
2023/07/07 09:42:19;;;;;;;15.90;5.47;;;24.50;46.30;;;;;;5040503;28;20486;-60
2023/07/07 09:45:14;;;;;;;9.07;5.47;;;24.70;47.30;;;;;;5039066;28;20417;-62
2023/07/07 09:48:09;;;;;;;21.67;4.70;;;24.80;48.10;;;;;;5041717;28;20512;-61
2023/07/07 09:50:43;;;;;;;14.30;5.77;;;24.80;47.30;;;;;;5042630;28;20426;-57
2023/07/07 09:53:22;;;;;;;10.30;4.43;;;24.90;48.70;;;;;;5042932;28;20429;-58
2023/07/07 09:55:47;;;;;;;7.70;5.30;;;25.10;48.10;;;;;;5038556;28;20460;-58
2023/07/07 09:58:16;;;;;;;12.90;5.33;;;25.20;48.30;;;;;;5039290;28;20426;-58
2023/07/07 10:00:46;;;;;;;7.93;5.00;;;25.20;47.00;;;;;;5037255;28;20217;-58
2023/07/07 10:03:38;;;;;;;12.17;5.40;;;25.20;46.70;;;;;;5037151;28;20432;-58
2023/07/07 10:06:24;;;;;;;9.33;4.87;;;25.40;47.00;;;;;;5040959;28;20437;-58
2023/07/07 10:08:49;;;;;;;10.13;5.80;;;25.60;46.10;;;;;;5035235;28;20919;-58
2023/07/07 10:11:36;;;;;;;7.37;5.03;;;25.70;46.40;;;;;;5039791;28;20464;-60
2023/07/07 10:14:05;;;;;;;9.03;5.40;;;25.80;46.50;;;;;;5040941;28;20270;-60
2023/07/07 10:16:30;;;;;;;7.93;4.57;;;25.90;42.30;;;;;;5037847;28;20463;-61
2023/07/07 10:19:26;;;;;;;11.80;4.97;;;25.80;43.80;;;;;;5038385;28;20421;-59
2023/07/07 10:21:52;;;;;;;8.80;4.57;;;25.90;44.50;;;;;;5036283;28;20234;-58
2023/07/07 10:24:18;;;;;;;11.63;4.60;;;25.90;45.30;;;;;;5038445;28;20434;-61
2023/07/07 10:26:47;;;;;;;10.97;4.43;;;26.00;46.00;;;;;;5048276;28;20507;-59
2023/07/07 10:29:23;;;;;;;7.17;4.40;;;26.10;44.70;;;;;;5039739;28;20429;-61
2023/07/07 10:31:50;;;;;;;10.90;4.93;;;26.20;44.50;;;;;;5039216;28;20984;-62
2023/07/07 10:34:25;;;;;;;7.90;4.90;;;26.30;44.00;;;;;;5039622;28;21103;-61
2023/07/07 10:36:53;;;;;;;13.60;4.53;;;26.40;44.40;;;;;;5036733;28;20590;-60
2023/07/07 10:39:21;;;;;;;5.57;4.57;;;26.50;44.20;;;;;;5041646;28;21002;-62
2023/07/07 10:41:47;;;;;;;8.37;4.83;;;26.60;43.40;;;;;;5039583;28;20494;-60
2023/07/07 10:44:13;;;;;;;10.20;4.70;;;26.60;43.30;;;;;;5042120;28;20430;-62
2023/07/07 10:46:38;;;;;;;9.53;5.10;;;26.80;43.80;;;;;;5041178;28;20501;-62
2023/07/07 10:49:04;;;;;;;13.43;4.70;;;26.80;43.80;;;;;;5048785;28;20194;-61
2023/07/07 10:51:49;;;;;;;7.40;4.40;;;27.00;42.90;;;;;;5043080;28;20202;-61
2023/07/07 10:54:40;;;;;;;8.73;5.00;;;27.00;42.30;;;;;;5039730;28;20170;-61
2023/07/07 10:57:29;;;;;;;7.80;4.10;;;27.20;42.20;;;;;;5038517;28;20238;-59
2023/07/07 11:00:07;;;;;;;10.13;4.60;;;27.30;41.50;;;;;;5028695;28;20741;-62
2023/07/07 11:02:42;;;;;;;7.40;4.20;;;27.50;41.20;;;;;;5036613;28;20279;-62
2023/07/07 11:05:42;;;;;;;13.63;5.07;;;27.60;40.80;;;;;;5042404;28;20271;-62
2023/07/07 11:08:26;;;;;;;8.33;5.37;;;27.70;40.50;;;;;;5037006;28;20278;-62
2023/07/07 11:11:01;;;;;;;9.07;4.63;;;27.80;39.30;;;;;;5039148;28;20309;-61
2023/07/07 11:13:43;;;;;;;15.50;5.20;;;27.70;39.00;;;;;;5041781;28;20178;-62
2023/07/07 11:16:45;;;;;;;11.03;4.67;;;27.70;40.50;;;;;;5038295;28;20203;-62
2023/07/07 11:19:13;;;;;;;10.70;4.60;;;27.80;39.80;;;;;;5045108;28;20177;-63
2023/07/07 11:22:02;;;;;;;7.10;3.70;;;27.90;39.00;;;;;;5044879;28;20274;-62
2023/07/07 11:24:32;;;;;;;6.90;4.50;;;28.00;38.30;;;;;;5038922;28;20183;-64
2023/07/07 11:27:31;;;;;;;10.53;4.70;;;28.10;37.50;;;;;;5044906;28;20182;-61
2023/07/07 11:30:27;;;;;;;6.90;4.10;;;28.10;39.40;;;;;;5035865;28;20171;-61
2023/07/07 11:33:20;;;;;;;7.60;4.10;;;28.10;38.00;;;;;;5040017;28;20771;-62
2023/07/07 11:35:57;;;;;;;7.73;4.10;;;28.10;37.80;;;;;;5042803;28;20286;-60
2023/07/07 11:39:00;;;;;;;8.63;3.90;;;28.10;39.30;;;;;;5046029;28;20281;-58
2023/07/07 11:41:46;;;;;;;8.83;4.30;;;28.10;39.00;;;;;;5047615;28;20217;-62
2023/07/07 11:44:33;;;;;;;9.93;5.13;;;28.20;38.70;;;;;;5041430;28;20257;-61
2023/07/07 11:47:11;;;;;;;15.50;4.13;;;28.50;39.60;;;;;;5037706;28;20214;-61
2023/07/07 11:49:42;;;;;;;9.17;5.00;;;28.60;39.30;;;;;;5040465;28;20640;-62
2023/07/07 11:52:20;;;;;;;8.10;4.20;;;28.80;39.30;;;;;;5033497;28;20558;-60
2023/07/07 11:55:22;;;;;;;10.20;4.13;;;28.90;38.20;;;;;;5034705;28;20216;-62
2023/07/07 11:57:59;;;;;;;7.47;3.93;;;28.90;36.40;;;;;;5045256;28;20425;-62
2023/07/07 12:00:27;;;;;;;10.07;3.92;;;28.90;36.80;;;;;;5048384;28;20170;-62
2023/07/07 12:03:14;;;;;;;11.68;4.53;;;28.80;36.60;;;;;;5047683;28;20643;-62
2023/07/07 12:05:41;;;;;;;7.18;4.10;;;28.90;38.00;;;;;;5025339;28;20187;-63
2023/07/07 12:08:21;;;;;;;8.30;4.47;;;29.00;37.60;;;;;;5030813;28;20186;-62
2023/07/07 12:10:55;;;;;;;7.95;4.53;;;29.10;37.70;;;;;;5050059;28;20528;-62
2023/07/07 12:13:30;;;;;;;10.68;4.72;;;29.20;38.90;;;;;;5039586;28;20257;-61
2023/07/07 12:16:27;;;;;;;5.82;3.97;;;29.30;38.70;;;;;;5037227;28;20293;-61
2023/07/07 12:19:22;;;;;;;9.32;4.68;;;29.50;38.10;;;;;;5036623;28;20183;-61
2023/07/07 12:21:50;;;;;;;6.55;4.05;;;29.50;37.10;;;;;;5035047;28;20256;-63
2023/07/07 12:24:28;;;;;;;8.35;4.20;;;29.50;37.00;;;;;;5036815;28;20202;-61
2023/07/07 12:27:16;;;;;;;9.32;4.53;;;29.70;37.80;;;;;;5028956;28;20179;-60
2023/07/07 12:29:44;;;;;;;8.20;3.85;;;29.90;37.80;;;;;;5031818;28;20194;-62
2023/07/07 12:32:10;;;;;;;7.03;3.38;;;29.90;35.50;;;;;;5040200;28;20243;-61
2023/07/07 12:34:39;;;;;;;7.75;3.85;;;30.00;35.80;;;;;;5043877;28;20658;-61
2023/07/07 12:37:14;;;;;;;10.55;3.90;;;30.10;34.10;;;;;;5036824;28;20210;-63
2023/07/07 12:40:09;;;;;;;6.03;3.83;;;30.00;34.20;;;;;;5041227;28;20669;-63
2023/07/07 12:42:38;;;;;;;9.18;4.20;;;30.00;34.20;;;;;;5035276;28;20214;-62
2023/07/07 12:45:28;;;;;;;6.53;3.67;;;30.10;35.40;;;;;;5041678;28;20176;-63
2023/07/07 12:48:22;;;;;;;12.02;4.63;;;30.20;35.30;;;;;;5040389;28;20572;-60
2023/07/07 12:50:48;;;;;;;12.00;3.72;;;30.40;35.50;;;;;;5039332;28;20293;-61
2023/07/07 12:53:35;;;;;;;6.68;3.88;;;30.60;35.40;;;;;;5039964;28;21371;-63
2023/07/07 12:56:06;;;;;;;9.80;3.97;;;30.50;34.00;;;;;;5028360;28;20202;-63
2023/07/07 12:58:41;;;;;;;8.65;4.07;;;29.90;33.70;;;;;;5047097;28;20257;-62
2023/07/07 13:01:07;;;;;;;9.90;4.40;;;29.30;34.90;;;;;;5037757;28;20202;-62
2023/07/07 13:03:42;;;;;;;8.00;4.47;;;29.10;37.00;;;;;;5042211;28;20629;-62
2023/07/07 13:06:40;;;;;;;10.25;3.90;;;29.30;37.40;;;;;;5037351;28;20244;-62